LSZB METAR and TAF | Updated Today

LSZB METAR

Bern Belp Airport

Observation time: 6 min. ago

LSZB 291950Z AUTO VRB03KT 9999 -RA SCT003 SCT006 BKN035 09/09 Q1006

Need help? Read our tutorial on how to read METARs or read the parsed version below.

Bern Belp Airport (LSZB) METAR

  • Weather conditions on Thu, 29 Sep 2022 19:50:00 +0000 (6 min. ago):
  • Present conditions: Light rain
  • Clouds: Scattered at 91 meters; scattered at 183 meters; broken sky at 1067 meters
  • Visibility: Greater than 10 km
  • Wind: Variable at 3 knots
  • Temperature: 9 celsius
  • Dew point: 9 celsius
  • Pressure: 1006 millibars
  • Remarks: None


Useful to know...

LSZB TAF

Bern Belp Airport

TAF LSZB 291425Z 2915/2924 VRB02KT 9999 SCT020 BKN030
Observation time: 5:31 hr. ago
Need help? Read our tutorial on how to read TAFs or read the parsed version below.

Parsed version of TAF for Bern Belp Airport (LSZB)

  • From 29 September at 15:00 UTC, to day 29 of the month at 24:00 UTC
  • Clouds: Scattered at 610 meters; broken sky at 914 meters
  • Visibility: Greater than 10 km
  • Wind: Variable at 2